Time;durP1;ratioP1;P1;durP2;ratioP2;P2;SDS_P1;SDS_P2;PMS_P1;PMS_P2;Temp;Humidity;BMP_temperature;BMP_pressure;BME280_temperature;BME280_humidity;BME280_pressure;Samples;Min_cycle;Max_cycle;Signal;HPM_P1;HPM_P2
2023/12/26 00:00:23;;;;;;;14.13;6.80;;;;;;;11.30;100.00;99992.44;5091832;28;20054;-43
2023/12/26 00:02:51;;;;;;;12.32;6.05;;;;;;;11.34;100.00;99995.75;5092262;28;20131;-44
2023/12/26 00:05:21;;;;;;;13.38;5.90;;;;;;;11.35;100.00;99998.31;5091816;28;20505;-42
2023/12/26 00:07:49;;;;;;;13.15;6.00;;;;;;;11.34;100.00;99996.59;5092206;28;20469;-42
2023/12/26 00:10:18;;;;;;;12.52;6.82;;;;;;;11.36;100.00;99994.66;5103152;28;20044;-43
2023/12/26 00:12:48;;;;;;;10.88;5.88;;;;;;;11.35;100.00;99992.97;5111832;28;20079;-42
2023/12/26 00:15:17;;;;;;;12.40;5.75;;;;;;;11.35;100.00;99998.31;5096698;28;20044;-42
2023/12/26 00:17:46;;;;;;;12.32;5.82;;;;;;;11.27;100.00;99992.63;5091644;28;20518;-43
2023/12/26 00:20:14;;;;;;;12.35;5.85;;;;;;;11.22;100.00;99991.22;5091542;28;20060;-42
2023/12/26 00:22:43;;;;;;;11.50;6.03;;;;;;;11.15;100.00;99996.97;5091599;28;20079;-43
2023/12/26 00:25:11;;;;;;;11.35;5.53;;;;;;;11.18;100.00;99990.56;5094036;28;20193;-43
2023/12/26 00:27:41;;;;;;;8.88;5.30;;;;;;;11.21;100.00;99982.38;5111841;28;20047;-42
2023/12/26 00:30:11;;;;;;;12.07;6.10;;;;;;;11.21;100.00;99995.72;5111828;28;20059;-41
2023/12/26 00:32:40;;;;;;;12.43;5.75;;;;;;;11.24;100.00;99991.97;5102229;28;20055;-42
2023/12/26 00:35:09;;;;;;;11.75;5.38;;;;;;;11.28;100.00;99999.66;5091454;28;20071;-41
2023/12/26 00:37:37;;;;;;;12.63;5.70;;;;;;;11.28;100.00;99991.66;5090963;28;20048;-42
2023/12/26 00:40:06;;;;;;;13.48;5.45;;;;;;;11.31;100.00;100004.81;5091264;28;20046;-42
2023/12/26 00:42:35;;;;;;;10.25;5.30;;;;;;;11.29;100.00;100004.06;5109814;28;20055;-42
2023/12/26 00:45:04;;;;;;;11.10;5.47;;;;;;;11.27;100.00;100000.63;5111577;28;20391;-42
2023/12/26 00:47:34;;;;;;;13.80;5.30;;;;;;;11.22;100.00;99997.44;5111811;28;20071;-47
2023/12/26 00:50:02;;;;;;;14.63;5.75;;;;;;;11.17;100.00;100002.19;5111772;28;20047;-45
2023/12/26 00:52:32;;;;;;;17.30;5.80;;;;;;;11.14;100.00;100010.44;5111636;28;20510;-43
2023/12/26 00:55:01;;;;;;;13.70;5.78;;;;;;;11.17;100.00;99994.19;5111790;28;20070;-42
2023/12/26 00:57:29;;;;;;;12.27;5.97;;;;;;;11.23;100.00;99996.47;5099302;28;20048;-44
2023/12/26 00:59:58;;;;;;;19.85;5.78;;;;;;;11.25;100.00;99991.88;5091377;28;20058;-42
2023/12/26 01:02:26;;;;;;;11.23;6.03;;;;;;;11.26;100.00;99993.59;5091211;28;20091;-42
2023/12/26 01:04:56;;;;;;;11.38;5.43;;;;;;;11.27;100.00;99997.97;5091292;28;20117;-42
2023/12/26 01:07:25;;;;;;;13.48;5.78;;;;;;;11.25;100.00;99999.03;5090937;28;20381;-41
2023/12/26 01:09:54;;;;;;;13.07;5.60;;;;;;;11.23;100.00;99984.94;5091347;28;20052;-42
2023/12/26 01:12:22;;;;;;;14.88;5.88;;;;;;;11.23;100.00;99983.13;5094956;28;20557;-43
2023/12/26 01:14:51;;;;;;;16.40;6.03;;;;;;;11.17;100.00;99987.03;5096328;28;20055;-42
2023/12/26 01:17:19;;;;;;;10.93;5.45;;;;;;;11.20;100.00;99988.66;5095276;28;20126;-43
2023/12/26 01:19:49;;;;;;;11.40;5.88;;;;;;;11.16;100.00;99988.00;5091545;28;20049;-41
2023/12/26 01:22:19;;;;;;;11.13;5.82;;;;;;;11.18;100.00;99969.22;5091424;28;20089;-43
2023/12/26 01:24:50;;;;;;;12.43;5.22;;;;;;;11.21;100.00;99958.34;5093201;28;20515;-43
2023/12/26 01:27:18;;;;;;;14.13;5.72;;;;;;;11.20;100.00;99953.13;5092877;28;20051;-43
2023/12/26 01:29:52;;;;;;;11.98;5.80;;;;;;;11.18;100.00;99966.53;5091180;28;20088;-41
2023/12/26 01:32:21;;;;;;;12.77;5.80;;;;;;;11.15;100.00;99985.44;5090915;28;20052;-42
2023/12/26 01:34:49;;;;;;;13.63;6.32;;;;;;;11.04;100.00;99994.16;5091061;28;20083;-44
2023/12/26 01:37:19;;;;;;;13.60;6.45;;;;;;;10.94;100.00;99992.19;5091052;28;20135;-42
2023/12/26 01:39:50;;;;;;;12.57;6.07;;;;;;;10.81;100.00;99986.81;5092906;28;20056;-43
2023/12/26 01:42:19;;;;;;;18.02;7.93;;;;;;;10.50;100.00;99990.59;5111549;28;20564;-43
2023/12/26 01:44:47;;;;;;;18.17;8.45;;;;;;;10.43;100.00;99991.97;5111794;28;20047;-42
2023/12/26 01:47:17;;;;;;;17.15;8.63;;;;;;;10.35;100.00;99994.25;5112173;28;20109;-42
2023/12/26 01:49:46;;;;;;;17.10;9.43;;;;;;;10.30;100.00;99991.84;5111640;28;20503;-41
2023/12/26 01:52:18;;;;;;;21.75;9.85;;;;;;;10.25;100.00;99989.50;5115659;28;20052;-42
2023/12/26 01:54:48;;;;;;;16.13;8.77;;;;;;;10.25;100.00;99984.16;5116011;28;20055;-42
2023/12/26 01:57:17;;;;;;;17.98;8.75;;;;;;;10.20;100.00;99988.88;5115565;28;20091;-41
2023/12/26 01:59:46;;;;;;;20.98;9.63;;;;;;;10.17;100.00;99994.41;5115286;28;20051;-43
2023/12/26 02:02:15;;;;;;;19.67;9.68;;;;;;;10.15;100.00;99988.34;5112845;28;20062;-42
2023/12/26 02:04:43;;;;;;;16.70;9.02;;;;;;;10.15;100.00;99988.34;5094792;28;20044;-42
2023/12/26 02:07:12;;;;;;;18.00;9.43;;;;;;;10.06;100.00;99983.56;5095252;28;20135;-41
2023/12/26 02:09:41;;;;;;;17.98;9.30;;;;;;;10.06;100.00;99978.25;5095878;28;20052;-41
2023/12/26 02:12:11;;;;;;;18.33;9.25;;;;;;;10.07;100.00;99985.28;5095285;28;20126;-41
2023/12/26 02:14:39;;;;;;;17.38;9.27;;;;;;;10.02;100.00;99976.69;5095067;28;20051;-44
2023/12/26 02:17:13;;;;;;;21.35;9.77;;;;;;;9.97;100.00;99978.81;5095000;28;20052;-42
2023/12/26 02:19:43;;;;;;;17.10;9.15;;;;;;;9.98;100.00;99975.19;5105161;28;20040;-42
2023/12/26 02:22:11;;;;;;;18.63;8.65;;;;;;;9.95;100.00;99983.38;5109205;28;20103;-43
2023/12/26 02:24:42;;;;;;;17.15;9.05;;;;;;;9.97;100.00;99989.47;5094783;28;20048;-42
2023/12/26 02:27:14;;;;;;;17.65;8.98;;;;;;;10.03;100.00;99989.06;5094760;28;20055;-41
2023/12/26 02:29:44;;;;;;;19.40;9.13;;;;;;;10.05;100.00;99987.19;5094763;28;20044;-43
2023/12/26 02:32:18;;;;;;;17.50;8.35;;;;;;;10.06;100.00;99978.25;5102248;28;20043;-44
2023/12/26 02:34:50;;;;;;;16.17;8.63;;;;;;;10.08;100.00;99973.66;5115110;28;20055;-43
2023/12/26 02:37:18;;;;;;;18.00;8.50;;;;;;;9.96;100.00;99975.28;5114628;28;20384;-41
2023/12/26 02:39:50;;;;;;;19.35;8.90;;;;;;;9.98;100.00;99965.41;5115548;28;20442;-42
2023/12/26 02:42:20;;;;;;;20.38;9.07;;;;;;;9.93;100.00;99971.94;5107246;27;20040;-43
2023/12/26 02:44:48;;;;;;;17.10;8.77;;;;;;;9.69;100.00;99983.16;5095289;28;20500;-42
2023/12/26 02:47:17;;;;;;;16.85;8.75;;;;;;;9.73;100.00;99965.19;5095061;28;20060;-41
2023/12/26 02:49:45;;;;;;;19.65;9.10;;;;;;;9.61;100.00;99961.47;5096997;28;20044;-42
2023/12/26 02:52:14;;;;;;;18.08;8.68;;;;;;;9.59;100.00;99963.38;5097697;28;20126;-43
2023/12/26 02:54:42;;;;;;;20.15;9.65;;;;;;;9.50;100.00;99969.25;5096351;28;20413;-43
2023/12/26 02:57:12;;;;;;;19.38;9.57;;;;;;;9.52;100.00;99967.34;5112672;28;20048;-42
2023/12/26 02:59:41;;;;;;;16.63;9.20;;;;;;;9.50;100.00;99974.56;5114961;27;20126;-42
2023/12/26 03:02:09;;;;;;;20.42;9.27;;;;;;;9.45;100.00;99981.97;5096460;28;20040;-48
2023/12/26 03:04:37;;;;;;;21.10;9.93;;;;;;;9.36;100.00;99983.41;5093843;28;20044;-42
2023/12/26 03:07:06;;;;;;;26.98;11.02;;;;;;;9.27;100.00;99967.97;5093853;28;20101;-42
2023/12/26 03:09:35;;;;;;;20.95;10.40;;;;;;;9.28;100.00;99979.47;5102573;28;20386;-41
2023/12/26 03:12:04;;;;;;;22.52;11.30;;;;;;;9.21;100.00;99978.13;5114331;28;20070;-42
2023/12/26 03:14:34;;;;;;;19.20;11.13;;;;;;;9.17;100.00;99978.31;5113395;28;20062;-44
2023/12/26 03:17:02;;;;;;;23.83;11.52;;;;;;;9.19;100.00;99980.88;5095386;27;20412;-42
2023/12/26 03:19:30;;;;;;;22.40;11.38;;;;;;;9.12;100.00;99972.38;5102052;28;20040;-42
2023/12/26 03:21:59;;;;;;;26.40;11.82;;;;;;;8.98;100.00;99967.03;5113163;28;20040;-42
2023/12/26 03:24:28;;;;;;;21.55;10.73;;;;;;;9.00;100.00;99970.44;5113476;28;20174;-41
2023/12/26 03:26:56;;;;;;;21.67;11.15;;;;;;;9.14;100.00;99962.50;5112834;28;20419;-43
2023/12/26 03:29:25;;;;;;;25.27;11.52;;;;;;;9.12;100.00;99972.38;5107914;28;20040;-41
2023/12/26 03:31:55;;;;;;;21.95;10.93;;;;;;;9.18;100.00;99977.34;5106407;28;20043;-43
2023/12/26 03:34:23;;;;;;;20.92;10.60;;;;;;;9.20;100.00;99976.41;5092500;28;20477;-43
2023/12/26 03:36:51;;;;;;;18.92;11.15;;;;;;;9.20;100.00;99971.94;5092591;28;20131;-42
2023/12/26 03:39:20;;;;;;;19.95;11.25;;;;;;;9.17;100.00;99967.66;5092501;28;20044;-43
2023/12/26 03:41:49;;;;;;;22.23;11.27;;;;;;;8.83;100.00;99957.25;5092454;28;20147;-43
2023/12/26 03:44:18;;;;;;;25.13;11.68;;;;;;;8.85;100.00;99960.69;5092343;28;20504;-42
2023/12/26 03:46:47;;;;;;;23.20;11.55;;;;;;;8.74;100.00;99957.78;5092685;28;20451;-42
2023/12/26 03:49:16;;;;;;;25.67;11.50;;;;;;;8.68;100.00;99952.78;5092357;28;20059;-43
2023/12/26 03:51:46;;;;;;;23.52;11.57;;;;;;;8.54;100.00;99950.94;5092040;28;20046;-43
2023/12/26 03:54:15;;;;;;;21.48;11.35;;;;;;;8.68;100.00;99947.47;5092156;28;20109;-43
2023/12/26 03:56:43;;;;;;;20.75;11.18;;;;;;;8.68;100.00;99945.69;5092027;28;20138;-40
2023/12/26 03:59:12;;;;;;;23.88;11.13;;;;;;;8.71;100.00;99936.69;5092040;28;20429;-42
2023/12/26 04:01:41;;;;;;;22.33;10.48;;;;;;;8.77;100.00;99937.19;5092104;28;20040;-41
2023/12/26 04:04:09;;;;;;;18.23;9.93;;;;;;;8.60;100.00;99935.50;5092008;28;20054;-41
2023/12/26 04:06:39;;;;;;;22.23;10.88;;;;;;;8.66;100.00;99944.06;5091981;28;20481;-41
2023/12/26 04:09:08;;;;;;;19.92;10.40;;;;;;;8.74;100.00;99931.19;5092062;28;20051;-46
2023/12/26 04:11:36;;;;;;;19.67;9.93;;;;;;;8.78;100.00;99928.28;5111475;28;20408;-44
2023/12/26 04:14:04;;;;;;;23.50;10.15;;;;;;;8.73;100.00;99924.16;5111747;28;20048;-41
2023/12/26 04:16:33;;;;;;;19.05;9.68;;;;;;;8.73;100.00;99924.16;5112764;28;20051;-42
2023/12/26 04:19:01;;;;;;;22.58;10.20;;;;;;;8.71;100.00;99929.56;5112228;28;20047;-42
2023/12/26 04:21:29;;;;;;;20.38;9.75;;;;;;;8.69;100.00;99925.28;5111977;28;20426;-43
2023/12/26 04:23:59;;;;;;;20.75;10.10;;;;;;;8.77;100.00;99938.97;5112100;28;20147;-43
2023/12/26 04:26:28;;;;;;;19.52;9.57;;;;;;;8.54;100.00;99946.47;5111843;28;20055;-43
2023/12/26 04:28:56;;;;;;;23.23;10.07;;;;;;;8.21;100.00;99946.53;5112213;28;20464;-43
2023/12/26 04:31:26;;;;;;;18.33;9.75;;;;;;;8.26;100.00;99946.28;5112086;28;20039;-42
2023/12/26 04:33:57;;;;;;;20.50;10.23;;;;;;;8.39;100.00;99944.66;5112113;28;20048;-42
2023/12/26 04:36:26;;;;;;;22.02;9.85;;;;;;;8.50;100.00;99944.09;5111801;28;20044;-43
2023/12/26 04:38:54;;;;;;;20.38;9.73;;;;;;;8.54;100.00;99941.16;5112116;28;20390;-41
2023/12/26 04:41:26;;;;;;;21.25;9.43;;;;;;;8.54;100.00;99941.16;5111963;28;20050;-43
2023/12/26 04:43:55;;;;;;;21.50;9.50;;;;;;;8.68;100.00;99952.78;5111932;28;20050;-42
2023/12/26 04:46:23;;;;;;;16.20;9.43;;;;;;;8.68;100.00;99955.47;5101899;28;20075;-42
2023/12/26 04:48:53;;;;;;;21.05;9.70;;;;;;;8.63;100.00;99961.06;5091367;28;20453;-43
2023/12/26 04:51:22;;;;;;;19.30;9.48;;;;;;;8.51;100.00;99967.94;5091735;28;20044;-41
2023/12/26 04:53:51;;;;;;;19.35;9.75;;;;;;;8.41;100.00;99950.78;5091637;28;20049;-42
2023/12/26 04:56:20;;;;;;;20.20;9.45;;;;;;;8.33;100.00;99966.25;5091801;28;20048;-42
2023/12/26 04:58:51;;;;;;;21.63;9.52;;;;;;;8.24;100.00;99961.44;5091450;28;20048;-43
2023/12/26 05:01:21;;;;;;;17.67;9.20;;;;;;;8.18;100.00;99956.47;5091726;28;20102;-43
2023/12/26 05:03:49;;;;;;;15.63;8.63;;;;;;;8.13;100.00;99966.50;5091801;28;20138;-43
2023/12/26 05:06:20;;;;;;;16.80;8.88;;;;;;;7.93;100.00;99954.31;5092920;28;20078;-41
2023/12/26 05:08:49;;;;;;;20.50;9.80;;;;;;;8.06;100.00;99973.06;5093314;28;20094;-44
2023/12/26 05:11:26;;;;;;;19.40;9.13;;;;;;;7.95;100.00;99965.69;5093392;28;20071;-43
2023/12/26 05:13:56;;;;;;;21.95;9.10;;;;;;;7.96;100.00;99964.75;5092447;28;20055;-42
2023/12/26 05:16:25;;;;;;;19.30;8.88;;;;;;;7.99;100.00;99969.88;5092793;28;20385;-42
2023/12/26 05:18:53;;;;;;;19.10;9.13;;;;;;;7.90;100.00;99965.06;5091460;28;20044;-41
2023/12/26 05:21:23;;;;;;;15.43;8.40;;;;;;;7.88;100.00;99951.88;5102766;28;20350;-42
2023/12/26 05:23:51;;;;;;;18.85;9.52;;;;;;;7.88;100.00;99951.88;5113435;28;20135;-41
2023/12/26 05:26:20;;;;;;;23.98;9.10;;;;;;;7.85;100.00;99941.44;5117628;28;20144;-43
2023/12/26 05:28:48;;;;;;;16.98;9.05;;;;;;;7.81;100.00;99955.78;5117571;28;20408;-43
2023/12/26 05:31:20;;;;;;;17.27;8.88;;;;;;;7.73;100.00;99952.72;5119207;28;20672;-42
2023/12/26 05:33:49;;;;;;;18.27;9.27;;;;;;;7.76;100.00;99944.56;5117886;28;20103;-42
2023/12/26 05:36:18;;;;;;;20.55;9.25;;;;;;;7.84;100.00;99942.38;5118078;28;20044;-43
2023/12/26 05:38:47;;;;;;;16.55;8.35;;;;;;;7.84;100.00;99947.69;5117138;28;20142;-44
2023/12/26 05:41:15;;;;;;;21.05;9.02;;;;;;;7.76;100.00;99941.91;5116775;28;20054;-42
2023/12/26 05:43:44;;;;;;;18.98;8.90;;;;;;;7.77;100.00;99943.63;5117078;28;20044;-40
2023/12/26 05:46:12;;;;;;;20.73;8.50;;;;;;;7.80;100.00;99937.28;5115241;28;20078;-43
2023/12/26 05:48:43;;;;;;;21.13;9.23;;;;;;;7.70;100.00;99936.94;5114732;28;20056;-41
2023/12/26 05:51:12;;;;;;;21.98;8.70;;;;;;;7.69;100.00;99945.84;5115084;28;20048;-42
2023/12/26 05:53:41;;;;;;;18.77;8.75;;;;;;;7.63;100.00;99936.41;5114921;28;20039;-42
2023/12/26 05:56:09;;;;;;;15.95;9.35;;;;;;;7.38;100.00;99931.53;5115558;28;20055;-43
2023/12/26 05:58:39;;;;;;;18.23;8.75;;;;;;;7.41;100.00;99951.72;5114917;28;20048;-43
2023/12/26 06:01:10;;;;;;;23.58;10.05;;;;;;;7.63;100.00;99954.16;5112685;28;20052;-42
2023/12/26 06:03:39;;;;;;;17.33;9.13;;;;;;;7.66;100.00;99953.97;5093985;28;20036;-41
2023/12/26 06:06:11;;;;;;;19.85;9.77;;;;;;;7.51;100.00;99947.66;5094133;28;20040;-45
2023/12/26 06:08:41;;;;;;;19.92;10.15;;;;;;;7.57;100.00;99951.78;5093772;28;20051;-42
2023/12/26 06:11:09;;;;;;;17.95;9.25;;;;;;;7.46;100.00;99961.19;5094070;28;20099;-43
2023/12/26 06:13:38;;;;;;;22.40;10.20;;;;;;;7.45;100.00;99948.84;5094137;28;20138;-41
2023/12/26 06:16:07;;;;;;;20.10;10.70;;;;;;;7.32;100.00;99953.06;5093814;28;20044;-41
2023/12/26 06:18:36;;;;;;;18.95;9.98;;;;;;;7.36;100.00;99953.78;5093591;28;20423;-40
2023/12/26 06:21:05;;;;;;;18.55;9.52;;;;;;;7.30;100.00;99951.44;5093356;28;20040;-42
2023/12/26 06:23:35;;;;;;;20.33;9.38;;;;;;;7.37;100.00;99951.03;5093611;28;20048;-41
2023/12/26 06:26:04;;;;;;;21.58;9.25;;;;;;;7.46;100.00;99966.50;5093429;28;20056;-42
2023/12/26 06:28:36;;;;;;;16.48;8.57;;;;;;;7.26;100.00;99964.00;5093492;28;20388;-40
2023/12/26 06:31:05;;;;;;;17.85;9.45;;;;;;;7.35;100.00;99960.88;5093335;28;20107;-39
2023/12/26 06:33:33;;;;;;;18.75;9.43;;;;;;;7.36;100.00;99978.50;5093163;28;20050;-41
2023/12/26 06:36:02;;;;;;;24.35;10.15;;;;;;;7.36;100.00;99965.25;5100286;28;20425;-41
2023/12/26 06:38:30;;;;;;;18.67;9.07;;;;;;;7.43;100.00;99977.28;5113703;28;20094;-41
2023/12/26 06:41:01;;;;;;;20.10;9.75;;;;;;;7.40;100.00;99948.22;5113918;28;20054;-41
2023/12/26 06:43:30;;;;;;;17.73;8.93;;;;;;;7.41;100.00;99957.91;5113334;28;20071;-41
2023/12/26 06:45:58;;;;;;;18.52;8.85;;;;;;;7.27;100.00;99963.06;5113514;28;20039;-43
2023/12/26 06:48:26;;;;;;;20.33;9.00;;;;;;;7.38;100.00;99965.16;5112808;28;20396;-41
2023/12/26 06:50:55;;;;;;;18.73;9.25;;;;;;;7.18;100.00;99958.22;5102738;28;20120;-42
2023/12/26 06:53:24;;;;;;;20.10;10.05;;;;;;;7.08;100.00;99960.47;5105188;28;20123;-41
2023/12/26 06:55:52;;;;;;;20.08;9.88;;;;;;;7.08;100.00;99963.13;5092635;28;20068;-41
2023/12/26 06:58:22;;;;;;;19.15;9.20;;;;;;;7.16;100.00;99957.44;5072525;28;20044;-42
2023/12/26 07:00:50;;;;;;;18.50;8.77;;;;;;;7.30;100.00;99970.84;5072389;28;20052;-42
2023/12/26 07:03:19;;;;;;;14.63;8.00;;;;;;;7.21;100.00;99975.78;5072476;28;20139;-42
2023/12/26 07:05:48;;;;;;;17.63;9.13;;;;;;;7.27;100.00;99975.47;5072386;28;20128;-40
2023/12/26 07:08:16;;;;;;;18.23;9.15;;;;;;;7.25;100.00;99977.34;5106638;28;20062;-41
2023/12/26 07:10:45;;;;;;;19.05;8.60;;;;;;;7.35;100.00;99973.28;5112965;28;20043;-41
2023/12/26 07:13:13;;;;;;;20.70;9.07;;;;;;;7.33;100.00;99978.66;5112677;28;20092;-41
2023/12/26 07:15:43;;;;;;;19.50;9.88;;;;;;;7.33;100.00;99991.91;5112776;28;20075;-41
2023/12/26 07:18:13;;;;;;;21.08;9.05;;;;;;;7.40;100.00;99974.75;5112848;28;20044;-42
2023/12/26 07:20:41;;;;;;;17.92;9.18;;;;;;;7.43;100.00;99993.19;5112772;28;20139;-41
2023/12/26 07:23:09;;;;;;;18.50;9.85;;;;;;;7.55;100.00;99997.00;5112536;28;20583;-43
2023/12/26 07:25:38;;;;;;;18.02;8.95;;;;;;;7.57;100.00;100000.44;5112214;28;20491;-42
2023/12/26 07:28:07;;;;;;;23.42;9.68;;;;;;;7.65;100.00;100002.69;5112549;28;20078;-41
2023/12/26 07:30:35;;;;;;;20.30;9.35;;;;;;;7.71;100.00;100013.84;5112710;28;20093;-42
2023/12/26 07:33:05;;;;;;;20.75;9.88;;;;;;;7.77;100.00;100028.59;5112471;28;20051;-40
2023/12/26 07:35:36;;;;;;;23.85;9.30;;;;;;;7.83;100.00;100027.44;5112491;27;20051;-42
2023/12/26 07:38:05;;;;;;;19.23;10.77;;;;;;;7.81;100.00;100018.66;5112649;28;20134;-42
2023/12/26 07:40:33;;;;;;;23.55;10.52;;;;;;;7.87;100.00;100013.91;5093394;28;20505;-42
2023/12/26 07:43:02;;;;;;;16.98;9.57;;;;;;;7.82;100.00;100015.94;5092107;28;20058;-40
2023/12/26 07:45:30;;;;;;;18.33;9.13;;;;;;;7.83;100.00;100017.66;5091982;28;20131;-41
2023/12/26 07:47:58;;;;;;;19.35;9.73;;;;;;;7.80;100.00;100033.75;5097620;28;20044;-42
2023/12/26 07:50:28;;;;;;;21.40;10.38;;;;;;;7.83;100.00;100024.78;5112289;28;20151;-42
2023/12/26 07:52:57;;;;;;;22.85;10.05;;;;;;;7.75;100.00;100026.03;5111923;28;20461;-41
2023/12/26 07:55:29;;;;;;;24.70;10.68;;;;;;;7.63;100.00;100013.41;5112159;28;20139;-43
2023/12/26 07:57:57;;;;;;;25.23;9.73;;;;;;;7.70;100.00;100012.13;5112130;28;20050;-41
2023/12/26 08:00:25;;;;;;;22.80;10.27;;;;;;;7.73;100.00;100013.78;5112010;28;20127;-42
2023/12/26 08:02:54;;;;;;;33.22;10.90;;;;;;;7.85;100.00;100018.44;5111691;28;20052;-40
2023/12/26 08:05:22;;;;;;;24.38;9.73;;;;;;;7.95;100.00;100019.66;5111915;28;20058;-41
2023/12/26 08:07:52;;;;;;;20.40;9.25;;;;;;;7.92;100.00;100022.50;5112071;28;20131;-42
2023/12/26 08:10:20;;;;;;;18.15;9.30;;;;;;;7.92;100.00;100021.63;5112073;27;20101;-41
2023/12/26 08:12:49;;;;;;;21.25;9.90;;;;;;;8.07;100.00;100014.63;5111564;28;20464;-41
2023/12/26 08:15:17;;;;;;;21.40;9.25;;;;;;;8.09;100.00;100018.06;5111831;28;20128;-40
2023/12/26 08:17:45;;;;;;;15.25;9.18;;;;;;;8.04;100.00;100020.97;5100225;28;20134;-42
2023/12/26 08:20:14;;;;;;;20.08;9.52;;;;;;;8.17;100.00;100027.34;5095247;28;20040;-41
2023/12/26 08:22:43;;;;;;;22.75;9.68;;;;;;;8.06;100.00;100026.19;5102341;28;20051;-42
2023/12/26 08:25:13;;;;;;;20.83;9.02;;;;;;;7.86;100.00;100014.84;5097100;28;20109;-42
2023/12/26 08:27:41;;;;;;;21.35;9.23;;;;;;;8.14;100.00;100021.34;5098638;28;20052;-40
2023/12/26 08:30:11;;;;;;;20.10;9.13;;;;;;;8.44;100.00;100017.06;5093699;28;20044;-42
2023/12/26 08:32:40;;;;;;;21.23;9.15;;;;;;;8.54;100.00;100018.25;5108281;28;20051;-41
2023/12/26 08:35:09;;;;;;;21.92;9.63;;;;;;;8.67;100.00;100020.22;5101402;28;20529;-41
2023/12/26 08:37:37;;;;;;;19.08;9.50;;;;;;;8.69;100.00;100018.34;5091672;28;20044;-40
2023/12/26 08:40:07;;;;;;;20.58;10.77;;;;;;;8.59;100.00;100018.88;5095722;28;20055;-42
2023/12/26 08:42:37;;;;;;;19.75;9.90;;;;;;;8.62;100.00;100001.88;5096627;28;20046;-43
2023/12/26 08:45:06;;;;;;;21.13;9.43;;;;;;;8.54;100.00;99996.13;5102867;28;20529;-40
2023/12/26 08:47:35;;;;;;;17.70;9.35;;;;;;;8.67;100.00;99990.97;5105658;28;20045;-41
2023/12/26 08:50:05;;;;;;;18.13;8.80;;;;;;;8.73;100.00;100001.28;5111232;28;20501;-41
2023/12/26 08:52:34;;;;;;;20.13;9.23;;;;;;;8.81;100.00;99997.25;5093616;28;20442;-40
2023/12/26 08:55:02;;;;;;;16.90;8.48;;;;;;;8.97;100.00;99996.34;5090918;28;20044;-42
2023/12/26 08:57:31;;;;;;;16.30;8.82;;;;;;;9.04;100.00;99987.94;5090984;28;20425;-42
2023/12/26 09:00:01;;;;;;;17.08;8.40;;;;;;;9.15;100.00;99996.13;5096537;28;20404;-41
2023/12/26 09:02:29;;;;;;;19.25;8.40;;;;;;;9.23;100.00;100002.81;5101273;28;20508;-41
2023/12/26 09:04:58;;;;;;;17.75;8.20;;;;;;;9.40;100.00;99992.91;5101119;28;20044;-41
2023/12/26 09:07:27;;;;;;;18.70;8.50;;;;;;;9.50;100.00;100009.19;5105403;28;20466;-42
2023/12/26 09:09:55;;;;;;;20.00;8.52;;;;;;;9.59;100.00;100021.94;5091565;28;20048;-40
2023/12/26 09:12:24;;;;;;;16.38;8.35;;;;;;;9.69;100.00;100024.91;5104193;28;20035;-41
2023/12/26 09:14:52;;;;;;;17.33;8.45;;;;;;;9.73;100.00;100032.63;5097679;28;20047;-43
2023/12/26 09:17:22;;;;;;;17.20;8.70;;;;;;;9.95;100.00;100028.69;5098687;28;20043;-42
2023/12/26 09:19:50;;;;;;;18.35;8.20;;;;;;;10.04;100.00;100044.09;5097802;28;20077;-41
2023/12/26 09:22:19;;;;;;;15.85;8.27;;;;;;;10.10;100.00;100046.38;5102662;28;20044;-41
2023/12/26 09:24:47;;;;;;;17.70;8.55;;;;;;;10.09;100.00;100052.66;5103345;28;20113;-41
2023/12/26 09:27:16;;;;;;;42.63;22.25;;;;;;;10.17;100.00;100041.53;5093910;28;20048;-42
2023/12/26 09:29:44;;;;;;;40.40;20.77;;;;;;;10.14;100.00;100050.59;5101791;28;20180;-42
2023/12/26 09:32:13;;;;;;;24.13;12.02;;;;;;;9.99;100.00;100032.84;5115261;28;20133;-42
2023/12/26 09:34:43;;;;;;;22.25;10.85;;;;;;;9.98;100.00;100039.13;5115041;28;20043;-44
2023/12/26 09:37:11;;;;;;;23.45;10.38;;;;;;;10.02;100.00;100035.31;5115046;28;20501;-42
2023/12/26 09:39:39;;;;;;;18.38;9.48;;;;;;;9.85;100.00;100046.19;5113974;28;20050;-42
2023/12/26 09:42:11;;;;;;;26.70;13.93;;;;;;;9.83;100.00;100056.03;5114651;28;20346;-42
2023/12/26 09:44:40;;;;;;;22.58;10.10;;;;;;;9.69;100.00;100052.41;5100063;28;20468;-41
2023/12/26 09:47:08;;;;;;;29.42;11.50;;;;;;;9.85;100.00;100059.50;5113210;28;20074;-42
2023/12/26 09:49:37;;;;;;;19.92;10.27;;;;;;;9.74;100.00;100057.44;5105675;28;20051;-41
2023/12/26 09:52:09;;;;;;;23.00;11.98;;;;;;;9.87;100.00;100070.91;5107087;28;20063;-41
2023/12/26 09:54:44;;;;;;;21.50;11.15;;;;;;;9.84;100.00;100055.09;5114710;28;20098;-43
2023/12/26 09:57:15;;;;;;;17.25;10.30;;;;;;;9.83;100.00;100059.56;5073683;28;20045;-43
2023/12/26 09:59:45;;;;;;;20.08;10.82;;;;;;;9.92;100.00;100051.00;5091659;28;20105;-42
2023/12/26 10:02:13;;;;;;;22.05;10.52;;;;;;;9.83;100.00;100058.72;5094197;28;20083;-42
2023/12/26 10:04:43;;;;;;;21.58;11.15;;;;;;;9.85;100.00;100059.50;5093747;28;20067;-43
2023/12/26 10:07:14;;;;;;;21.77;10.82;;;;;;;9.78;100.00;100055.47;5094163;28;20204;-43
2023/12/26 10:09:43;;;;;;;19.77;10.20;;;;;;;9.79;100.00;100049.19;5093734;28;20523;-42
2023/12/26 10:12:12;;;;;;;20.30;10.82;;;;;;;9.79;100.00;100067.84;5092570;28;20523;-43
2023/12/26 10:14:40;;;;;;;20.98;11.15;;;;;;;9.79;100.00;100073.16;5093774;28;20438;-42
2023/12/26 10:17:10;;;;;;;23.50;11.13;;;;;;;9.51;100.00;100077.47;5093689;28;20429;-42
2023/12/26 10:19:41;;;;;;;25.77;13.07;;;;;;;9.48;100.00;100068.81;5093623;28;20186;-42
2023/12/26 10:22:14;;;;;;;21.92;11.45;;;;;;;9.49;100.00;100049.22;5093619;28;20047;-43
2023/12/26 10:24:42;;;;;;;23.15;11.75;;;;;;;9.26;100.00;100046.06;5093682;28;20070;-42
2023/12/26 10:27:11;;;;;;;24.02;11.90;;;;;;;9.27;100.00;100044.31;5093565;28;20393;-42
2023/12/26 10:29:39;;;;;;;23.67;12.18;;;;;;;9.26;100.00;100024.78;5093218;28;20048;-45
2023/12/26 10:32:08;;;;;;;20.90;11.52;;;;;;;9.06;100.00;100014.44;5093412;28;20083;-43
2023/12/26 10:34:36;;;;;;;23.80;12.27;;;;;;;9.06;100.00;100020.63;5093339;28;20409;-43
2023/12/26 10:37:08;;;;;;;21.40;12.15;;;;;;;9.17;100.00;100015.56;5093299;28;20570;-42
2023/12/26 10:39:38;;;;;;;23.15;12.30;;;;;;;9.28;100.00;100012.25;5093284;28;20264;-42
2023/12/26 10:42:08;;;;;;;24.10;11.98;;;;;;;9.32;100.00;100016.44;5093221;28;20075;-42
2023/12/26 10:44:58;;;;;;;23.38;13.32;;;;;;;9.27;100.00;100020.34;5093357;28;20051;-43
2023/12/26 10:47:28;;;;;;;22.27;13.43;;;;;;;9.27;100.00;100013.22;5093394;28;20405;-44
2023/12/26 10:50:00;;;;;;;23.02;13.55;;;;;;;9.37;100.00;100022.38;5093270;28;20039;-47
2023/12/26 10:52:31;;;;;;;25.38;13.43;;;;;;;9.16;100.00;100016.47;5093166;28;20055;-42
2023/12/26 10:55:02;;;;;;;28.63;15.80;;;;;;;9.29;100.00;100019.31;5092916;28;20113;-42
2023/12/26 10:57:35;;;;;;;36.97;16.80;;;;;;;9.43;100.00;100011.34;5093091;28;20044;-43
2023/12/26 13:53:13;;;;;;;12.38;5.75;;;;;;;10.92;100.00;100066.16;5099219;28;20043;-41
2023/12/26 13:55:42;;;;;;;13.57;6.50;;;;;;;11.17;100.00;100068.94;5100391;28;20048;-41
2023/12/26 13:58:10;;;;;;;14.77;6.75;;;;;;;11.13;100.00;100075.44;5099383;28;20488;-43
2023/12/26 14:00:38;;;;;;;14.13;6.40;;;;;;;11.33;100.00;100068.81;5099602;28;20394;-41
2023/12/26 14:03:06;;;;;;;16.80;6.38;;;;;;;11.30;100.00;100072.53;5096060;28;20047;-43
2023/12/26 14:05:34;;;;;;;18.40;6.32;;;;;;;11.15;100.00;100081.53;5098825;28;20055;-41
2023/12/26 14:08:05;;;;;;;10.90;5.43;;;;;;;11.26;100.00;100089.69;5099251;28;20458;-41
2023/12/26 14:10:35;;;;;;;12.02;5.53;;;;;;;11.36;100.00;100096.16;5099207;28;20040;-41
2023/12/26 14:13:04;;;;;;;9.52;4.63;;;;;;;11.43;100.00;100097.47;5097381;28;20059;-42
2023/12/26 14:15:32;;;;;;;7.38;3.60;;;;;;;11.58;100.00;100100.06;5106498;28;20044;-41
2023/12/26 14:18:02;;;;;;;8.68;3.75;;;;;;;11.73;100.00;100107.91;5097437;28;20140;-42